sensor_id;sensor_type;location;lat;lon;timestamp;temperature;humidity
5689;DHT22;2869;50.432;8.680;2023-08-17T01:18:33;18.00;99.90
5689;DHT22;2869;50.432;8.680;2023-08-17T01:21:02;17.90;99.90
5689;DHT22;2869;50.432;8.680;2023-08-17T01:23:30;17.90;99.90
5689;DHT22;2869;50.432;8.680;2023-08-17T01:25:57;17.80;99.90
5689;DHT22;2869;50.432;8.680;2023-08-17T01:28:23;17.90;99.90
5689;DHT22;2869;50.432;8.680;2023-08-17T01:30:55;17.80;99.90
5689;DHT22;2869;50.432;8.680;2023-08-17T01:33:28;17.80;99.90
5689;DHT22;2869;50.432;8.680;2023-08-17T01:36:07;17.80;99.90
5689;DHT22;2869;50.432;8.680;2023-08-17T01:38:39;17.80;99.90
5689;DHT22;2869;50.432;8.680;2023-08-17T01:41:08;17.80;99.90
5689;DHT22;2869;50.432;8.680;2023-08-17T01:43:39;17.80;99.90
5689;DHT22;2869;50.432;8.680;2023-08-17T01:46:07;17.80;99.90
5689;DHT22;2869;50.432;8.680;2023-08-17T01:48:34;17.80;99.90
5689;DHT22;2869;50.432;8.680;2023-08-17T01:51:00;17.80;99.90
5689;DHT22;2869;50.432;8.680;2023-08-17T01:53:27;17.70;99.90
5689;DHT22;2869;50.432;8.680;2023-08-17T01:55:55;17.70;99.90
5689;DHT22;2869;50.432;8.680;2023-08-17T01:58:22;17.60;99.90
5689;DHT22;2869;50.432;8.680;2023-08-17T02:00:48;17.60;99.90
5689;DHT22;2869;50.432;8.680;2023-08-17T02:03:15;17.60;99.90
5689;DHT22;2869;50.432;8.680;2023-08-17T02:05:44;17.60;99.90
5689;DHT22;2869;50.432;8.680;2023-08-17T02:08:11;17.50;99.90
5689;DHT22;2869;50.432;8.680;2023-08-17T02:10:38;17.50;99.90
5689;DHT22;2869;50.432;8.680;2023-08-17T02:13:06;17.50;99.90
5689;DHT22;2869;50.432;8.680;2023-08-17T02:15:38;17.50;99.90
5689;DHT22;2869;50.432;8.680;2023-08-17T02:18:04;17.50;99.90
5689;DHT22;2869;50.432;8.680;2023-08-17T02:20:31;17.50;99.90
5689;DHT22;2869;50.432;8.680;2023-08-17T02:22:58;17.50;99.90
5689;DHT22;2869;50.432;8.680;2023-08-17T02:25:24;17.40;99.90
5689;DHT22;2869;50.432;8.680;2023-08-17T02:27:51;17.60;99.90
5689;DHT22;2869;50.432;8.680;2023-08-17T02:30:20;17.40;99.90
5689;DHT22;2869;50.432;8.680;2023-08-17T02:32:46;17.40;99.90
5689;DHT22;2869;50.432;8.680;2023-08-17T02:35:13;17.30;99.90
5689;DHT22;2869;50.432;8.680;2023-08-17T02:37:40;17.30;99.90
5689;DHT22;2869;50.432;8.680;2023-08-17T02:40:07;17.30;99.90
5689;DHT22;2869;50.432;8.680;2023-08-17T02:42:34;17.20;99.90
5689;DHT22;2869;50.432;8.680;2023-08-17T02:45:01;17.10;99.90
5689;DHT22;2869;50.432;8.680;2023-08-17T02:47:29;17.00;99.90
5689;DHT22;2869;50.432;8.680;2023-08-17T02:49:55;17.00;99.90
5689;DHT22;2869;50.432;8.680;2023-08-17T02:52:22;17.00;99.90
5689;DHT22;2869;50.432;8.680;2023-08-17T02:54:49;17.00;99.90
5689;DHT22;2869;50.432;8.680;2023-08-17T02:57:16;16.90;99.90
5689;DHT22;2869;50.432;8.680;2023-08-17T02:59:43;16.90;99.90
5689;DHT22;2869;50.432;8.680;2023-08-17T03:02:10;16.80;99.90
5689;DHT22;2869;50.432;8.680;2023-08-17T03:04:38;16.90;99.90
5689;DHT22;2869;50.432;8.680;2023-08-17T03:07:06;16.90;99.90
5689;DHT22;2869;50.432;8.680;2023-08-17T03:09:33;16.80;99.90
5689;DHT22;2869;50.432;8.680;2023-08-17T03:11:59;16.80;99.90
5689;DHT22;2869;50.432;8.680;2023-08-17T03:14:26;16.70;99.90
5689;DHT22;2869;50.432;8.680;2023-08-17T03:16:53;16.80;99.90
5689;DHT22;2869;50.432;8.680;2023-08-17T03:19:20;16.80;99.90
5689;DHT22;2869;50.432;8.680;2023-08-17T03:21:48;16.80;99.90
5689;DHT22;2869;50.432;8.680;2023-08-17T03:24:15;16.80;99.90
5689;DHT22;2869;50.432;8.680;2023-08-17T03:26:41;16.60;99.90
5689;DHT22;2869;50.432;8.680;2023-08-17T03:29:08;16.70;99.90
5689;DHT22;2869;50.432;8.680;2023-08-17T03:31:35;16.60;99.90
5689;DHT22;2869;50.432;8.680;2023-08-17T03:34:02;16.60;99.90
5689;DHT22;2869;50.432;8.680;2023-08-17T03:36:29;16.60;99.90
5689;DHT22;2869;50.432;8.680;2023-08-17T03:38:57;16.50;99.90
5689;DHT22;2869;50.432;8.680;2023-08-17T03:41:24;16.50;99.90
5689;DHT22;2869;50.432;8.680;2023-08-17T03:43:51;16.50;99.90
5689;DHT22;2869;50.432;8.680;2023-08-17T03:46:17;16.50;99.90
5689;DHT22;2869;50.432;8.680;2023-08-17T03:48:44;16.50;99.90
5689;DHT22;2869;50.432;8.680;2023-08-17T03:51:11;16.60;99.90
5689;DHT22;2869;50.432;8.680;2023-08-17T03:53:37;16.60;99.90
5689;DHT22;2869;50.432;8.680;2023-08-17T03:56:05;16.60;99.90
5689;DHT22;2869;50.432;8.680;2023-08-17T03:58:32;16.70;99.90
5689;DHT22;2869;50.432;8.680;2023-08-17T04:01:00;16.70;99.90
5689;DHT22;2869;50.432;8.680;2023-08-17T04:03:27;16.80;99.90
5689;DHT22;2869;50.432;8.680;2023-08-17T04:05:53;16.80;99.90
5689;DHT22;2869;50.432;8.680;2023-08-17T04:08:20;16.80;99.90
5689;DHT22;2869;50.432;8.680;2023-08-17T04:10:47;16.80;99.90
5689;DHT22;2869;50.432;8.680;2023-08-17T04:13:15;16.90;99.90
5689;DHT22;2869;50.432;8.680;2023-08-17T04:15:42;16.90;99.90
5689;DHT22;2869;50.432;8.680;2023-08-17T04:18:08;17.00;99.90
5689;DHT22;2869;50.432;8.680;2023-08-17T04:20:35;17.10;99.90
5689;DHT22;2869;50.432;8.680;2023-08-17T04:23:02;17.10;99.90
5689;DHT22;2869;50.432;8.680;2023-08-17T04:25:29;17.10;99.90
5689;DHT22;2869;50.432;8.680;2023-08-17T04:27:56;17.10;99.90
5689;DHT22;2869;50.432;8.680;2023-08-17T04:30:24;17.10;99.90
5689;DHT22;2869;50.432;8.680;2023-08-17T04:32:50;17.10;99.90
5689;DHT22;2869;50.432;8.680;2023-08-17T04:35:18;17.10;99.90
5689;DHT22;2869;50.432;8.680;2023-08-17T04:37:45;17.10;99.90
5689;DHT22;2869;50.432;8.680;2023-08-17T04:40:12;17.20;99.90
5689;DHT22;2869;50.432;8.680;2023-08-17T04:42:39;17.20;99.90
5689;DHT22;2869;50.432;8.680;2023-08-17T04:45:07;17.30;99.90
5689;DHT22;2869;50.432;8.680;2023-08-17T04:47:35;17.30;99.90
5689;DHT22;2869;50.432;8.680;2023-08-17T04:50:02;17.30;99.90
5689;DHT22;2869;50.432;8.680;2023-08-17T04:52:28;17.40;99.90
5689;DHT22;2869;50.432;8.680;2023-08-17T04:54:55;17.50;99.90
5689;DHT22;2869;50.432;8.680;2023-08-17T04:57:22;17.50;99.90
5689;DHT22;2869;50.432;8.680;2023-08-17T04:59:48;17.60;99.90
5689;DHT22;2869;50.432;8.680;2023-08-17T05:02:15;17.60;99.90
5689;DHT22;2869;50.432;8.680;2023-08-17T05:04:45;17.60;99.90
5689;DHT22;2869;50.432;8.680;2023-08-17T05:07:12;17.60;99.90
5689;DHT22;2869;50.432;8.680;2023-08-17T05:09:38;17.70;99.90
5689;DHT22;2869;50.432;8.680;2023-08-17T05:12:06;17.70;99.90
5689;DHT22;2869;50.432;8.680;2023-08-17T05:14:33;17.80;99.90
5689;DHT22;2869;50.432;8.680;2023-08-17T05:17:03;17.80;99.90
5689;DHT22;2869;50.432;8.680;2023-08-17T05:19:32;17.80;99.90
5689;DHT22;2869;50.432;8.680;2023-08-17T05:22:18;17.90;99.90
5689;DHT22;2869;50.432;8.680;2023-08-17T05:24:59;17.90;99.90
5689;DHT22;2869;50.432;8.680;2023-08-17T05:27:27;18.00;99.90
5689;DHT22;2869;50.432;8.680;2023-08-17T05:30:00;18.00;99.90
5689;DHT22;2869;50.432;8.680;2023-08-17T05:32:32;18.10;99.90
5689;DHT22;2869;50.432;8.680;2023-08-17T05:35:15;18.10;99.90
5689;DHT22;2869;50.432;8.680;2023-08-17T05:37:57;18.20;99.90
5689;DHT22;2869;50.432;8.680;2023-08-17T05:40:24;18.20;99.90
5689;DHT22;2869;50.432;8.680;2023-08-17T05:42:50;18.20;99.90
5689;DHT22;2869;50.432;8.680;2023-08-17T05:45:17;18.20;99.90
5689;DHT22;2869;50.432;8.680;2023-08-17T05:47:44;18.20;99.90
5689;DHT22;2869;50.432;8.680;2023-08-17T05:50:11;18.20;99.90
5689;DHT22;2869;50.432;8.680;2023-08-17T05:52:38;18.30;99.90
5689;DHT22;2869;50.432;8.680;2023-08-17T05:55:07;18.30;99.90
5689;DHT22;2869;50.432;8.680;2023-08-17T05:57:34;18.30;99.90
5689;DHT22;2869;50.432;8.680;2023-08-17T06:00:01;18.30;99.90
5689;DHT22;2869;50.432;8.680;2023-08-17T06:02:28;18.40;99.90
5689;DHT22;2869;50.432;8.680;2023-08-17T06:04:55;18.60;99.90
5689;DHT22;2869;50.432;8.680;2023-08-17T06:07:21;18.50;99.90
5689;DHT22;2869;50.432;8.680;2023-08-17T06:09:48;18.40;99.90
5689;DHT22;2869;50.432;8.680;2023-08-17T06:12:16;18.50;99.90
5689;DHT22;2869;50.432;8.680;2023-08-17T06:14:44;18.50;99.90
5689;DHT22;2869;50.432;8.680;2023-08-17T06:17:11;18.50;99.90
5689;DHT22;2869;50.432;8.680;2023-08-17T06:19:38;18.60;99.90
5689;DHT22;2869;50.432;8.680;2023-08-17T06:22:05;18.70;99.90
5689;DHT22;2869;50.432;8.680;2023-08-17T06:24:32;18.80;99.90
5689;DHT22;2869;50.432;8.680;2023-08-17T06:26:59;19.20;99.90
5689;DHT22;2869;50.432;8.680;2023-08-17T06:29:27;19.10;99.90
5689;DHT22;2869;50.432;8.680;2023-08-17T06:31:53;19.20;99.90
5689;DHT22;2869;50.432;8.680;2023-08-17T06:34:20;19.30;99.90
5689;DHT22;2869;50.432;8.680;2023-08-17T06:36:57;19.40;99.90
5689;DHT22;2869;50.432;8.680;2023-08-17T06:39:25;19.60;99.90
5689;DHT22;2869;50.432;8.680;2023-08-17T06:41:52;19.70;99.90
5689;DHT22;2869;50.432;8.680;2023-08-17T06:44:18;19.80;99.90
5689;DHT22;2869;50.432;8.680;2023-08-17T06:46:47;19.80;99.90
5689;DHT22;2869;50.432;8.680;2023-08-17T06:49:13;19.80;99.90
5689;DHT22;2869;50.432;8.680;2023-08-17T06:54:08;19.70;99.90
5689;DHT22;2869;50.432;8.680;2023-08-17T06:56:34;19.60;99.90
5689;DHT22;2869;50.432;8.680;2023-08-17T06:59:01;19.60;99.90
5689;DHT22;2869;50.432;8.680;2023-08-17T07:01:28;19.50;99.90
5689;DHT22;2869;50.432;8.680;2023-08-17T07:03:56;19.60;99.90
5689;DHT22;2869;50.432;8.680;2023-08-17T07:06:23;19.50;99.90
5689;DHT22;2869;50.432;8.680;2023-08-17T07:08:50;19.50;99.90
5689;DHT22;2869;50.432;8.680;2023-08-17T07:11:18;19.50;99.90
5689;DHT22;2869;50.432;8.680;2023-08-17T07:13:44;19.50;99.90
5689;DHT22;2869;50.432;8.680;2023-08-17T07:16:12;19.50;99.90
5689;DHT22;2869;50.432;8.680;2023-08-17T07:18:39;19.60;99.90
5689;DHT22;2869;50.432;8.680;2023-08-17T07:21:07;19.70;99.90
5689;DHT22;2869;50.432;8.680;2023-08-17T07:23:34;19.80;99.90
5689;DHT22;2869;50.432;8.680;2023-08-17T07:26:00;19.90;99.90
5689;DHT22;2869;50.432;8.680;2023-08-17T07:28:27;20.00;99.90
5689;DHT22;2869;50.432;8.680;2023-08-17T07:30:54;20.30;99.90
5689;DHT22;2869;50.432;8.680;2023-08-17T07:33:21;20.60;99.90
5689;DHT22;2869;50.432;8.680;2023-08-17T07:35:48;20.90;99.90
5689;DHT22;2869;50.432;8.680;2023-08-17T07:38:16;21.20;99.90
5689;DHT22;2869;50.432;8.680;2023-08-17T07:40:43;21.40;99.90
5689;DHT22;2869;50.432;8.680;2023-08-17T07:43:09;21.70;99.90
5689;DHT22;2869;50.432;8.680;2023-08-17T07:45:36;21.80;99.90
5689;DHT22;2869;50.432;8.680;2023-08-17T07:48:04;22.30;99.90
5689;DHT22;2869;50.432;8.680;2023-08-17T07:50:30;22.60;99.90
5689;DHT22;2869;50.432;8.680;2023-08-17T07:52:57;22.90;99.90
5689;DHT22;2869;50.432;8.680;2023-08-17T07:55:28;23.00;99.90
5689;DHT22;2869;50.432;8.680;2023-08-17T07:57:54;22.90;99.90
5689;DHT22;2869;50.432;8.680;2023-08-17T08:00:21;22.90;99.90
5689;DHT22;2869;50.432;8.680;2023-08-17T08:02:48;23.20;99.90
5689;DHT22;2869;50.432;8.680;2023-08-17T08:05:15;23.20;99.90
5689;DHT22;2869;50.432;8.680;2023-08-17T08:07:41;23.40;99.90
5689;DHT22;2869;50.432;8.680;2023-08-17T08:10:08;23.50;99.90
5689;DHT22;2869;50.432;8.680;2023-08-17T08:12:37;23.50;99.90
5689;DHT22;2869;50.432;8.680;2023-08-17T08:15:04;23.20;99.90
5689;DHT22;2869;50.432;8.680;2023-08-17T08:17:31;23.10;99.90
5689;DHT22;2869;50.432;8.680;2023-08-17T08:19:58;23.00;99.90
5689;DHT22;2869;50.432;8.680;2023-08-17T08:22:25;22.80;99.90
5689;DHT22;2869;50.432;8.680;2023-08-17T08:24:51;22.70;99.90
5689;DHT22;2869;50.432;8.680;2023-08-17T08:27:18;22.50;99.90
5689;DHT22;2869;50.432;8.680;2023-08-17T08:29:47;22.40;99.90
5689;DHT22;2869;50.432;8.680;2023-08-17T08:32:13;22.30;99.90
5689;DHT22;2869;50.432;8.680;2023-08-17T08:34:40;22.20;99.90
5689;DHT22;2869;50.432;8.680;2023-08-17T08:37:07;22.10;99.90
5689;DHT22;2869;50.432;8.680;2023-08-17T08:39:47;22.10;99.90
5689;DHT22;2869;50.432;8.680;2023-08-17T08:42:14;22.10;99.90
5689;DHT22;2869;50.432;8.680;2023-08-17T08:44:41;22.20;99.90
5689;DHT22;2869;50.432;8.680;2023-08-17T08:47:09;22.30;99.90
5689;DHT22;2869;50.432;8.680;2023-08-17T08:49:39;22.30;99.90
5689;DHT22;2869;50.432;8.680;2023-08-17T08:52:07;22.50;99.90
5689;DHT22;2869;50.432;8.680;2023-08-17T08:54:36;22.50;99.90
5689;DHT22;2869;50.432;8.680;2023-08-17T08:57:10;22.50;99.90
5689;DHT22;2869;50.432;8.680;2023-08-17T08:59:39;22.60;99.90
5689;DHT22;2869;50.432;8.680;2023-08-17T09:02:14;22.50;99.90
5689;DHT22;2869;50.432;8.680;2023-08-17T09:04:42;22.70;99.90
5689;DHT22;2869;50.432;8.680;2023-08-17T09:07:10;22.70;99.90
5689;DHT22;2869;50.432;8.680;2023-08-17T09:09:38;22.90;99.90
5689;DHT22;2869;50.432;8.680;2023-08-17T09:12:07;22.90;99.90
5689;DHT22;2869;50.432;8.680;2023-08-17T09:14:34;22.90;99.90
5689;DHT22;2869;50.432;8.680;2023-08-17T09:17:00;22.90;99.90
5689;DHT22;2869;50.432;8.680;2023-08-17T09:19:29;23.20;99.90
5689;DHT22;2869;50.432;8.680;2023-08-17T09:21:57;23.70;99.90
5689;DHT22;2869;50.432;8.680;2023-08-17T09:24:24;24.30;99.90
5689;DHT22;2869;50.432;8.680;2023-08-17T09:26:55;24.90;99.90
5689;DHT22;2869;50.432;8.680;2023-08-17T09:29:25;25.40;99.90
5689;DHT22;2869;50.432;8.680;2023-08-17T09:31:52;25.80;99.90
5689;DHT22;2869;50.432;8.680;2023-08-17T09:34:19;26.00;99.90
5689;DHT22;2869;50.432;8.680;2023-08-17T09:36:47;26.30;99.90
5689;DHT22;2869;50.432;8.680;2023-08-17T09:39:15;26.40;99.90
5689;DHT22;2869;50.432;8.680;2023-08-17T09:41:44;26.30;99.90
5689;DHT22;2869;50.432;8.680;2023-08-17T09:44:11;26.50;99.90
5689;DHT22;2869;50.432;8.680;2023-08-17T09:46:38;26.50;99.90
5689;DHT22;2869;50.432;8.680;2023-08-17T09:49:05;26.50;99.90
5689;DHT22;2869;50.432;8.680;2023-08-17T09:51:34;26.70;99.90
5689;DHT22;2869;50.432;8.680;2023-08-17T09:54:02;27.00;99.90
5689;DHT22;2869;50.432;8.680;2023-08-17T09:56:30;27.20;99.90
5689;DHT22;2869;50.432;8.680;2023-08-17T09:58:58;26.70;99.90
5689;DHT22;2869;50.432;8.680;2023-08-17T10:01:25;26.50;99.90
5689;DHT22;2869;50.432;8.680;2023-08-17T10:03:55;26.50;99.90
5689;DHT22;2869;50.432;8.680;2023-08-17T10:06:26;26.80;99.90
5689;DHT22;2869;50.432;8.680;2023-08-17T10:08:57;26.90;99.90
5689;DHT22;2869;50.432;8.680;2023-08-17T10:11:27;27.00;99.90
5689;DHT22;2869;50.432;8.680;2023-08-17T10:13:59;27.10;99.90
5689;DHT22;2869;50.432;8.680;2023-08-17T10:16:31;26.90;99.90
5689;DHT22;2869;50.432;8.680;2023-08-17T10:19:05;27.20;99.90
5689;DHT22;2869;50.432;8.680;2023-08-17T10:21:39;27.20;99.90
5689;DHT22;2869;50.432;8.680;2023-08-17T10:24:11;27.20;99.90
5689;DHT22;2869;50.432;8.680;2023-08-17T10:26:40;27.30;99.90
5689;DHT22;2869;50.432;8.680;2023-08-17T10:29:07;27.20;99.90
5689;DHT22;2869;50.432;8.680;2023-08-17T10:31:34;27.10;99.90
5689;DHT22;2869;50.432;8.680;2023-08-17T10:34:01;26.90;99.90
5689;DHT22;2869;50.432;8.680;2023-08-17T10:36:29;26.70;99.90
5689;DHT22;2869;50.432;8.680;2023-08-17T10:39:20;26.40;99.90
5689;DHT22;2869;50.432;8.680;2023-08-17T10:41:50;26.20;99.90
5689;DHT22;2869;50.432;8.680;2023-08-17T10:44:18;26.50;99.90
5689;DHT22;2869;50.432;8.680;2023-08-17T10:47:18;26.60;99.90
5689;DHT22;2869;50.432;8.680;2023-08-17T10:49:45;26.90;99.90
5689;DHT22;2869;50.432;8.680;2023-08-17T10:52:12;27.30;99.90
5689;DHT22;2869;50.432;8.680;2023-08-17T10:54:39;27.40;99.90
5689;DHT22;2869;50.432;8.680;2023-08-17T10:57:35;27.40;99.90
5689;DHT22;2869;50.432;8.680;2023-08-17T11:00:16;27.40;99.90
5689;DHT22;2869;50.432;8.680;2023-08-17T11:02:50;27.10;99.90
5689;DHT22;2869;50.432;8.680;2023-08-17T11:05:34;26.90;99.90
5689;DHT22;2869;50.432;8.680;2023-08-17T11:08:02;27.00;99.90
5689;DHT22;2869;50.432;8.680;2023-08-17T11:10:29;27.20;99.90
5689;DHT22;2869;50.432;8.680;2023-08-17T11:12:58;27.20;99.90
5689;DHT22;2869;50.432;8.680;2023-08-17T11:15:34;27.20;99.90
5689;DHT22;2869;50.432;8.680;2023-08-17T11:18:03;27.10;99.90
5689;DHT22;2869;50.432;8.680;2023-08-17T11:20:30;27.00;99.90
5689;DHT22;2869;50.432;8.680;2023-08-17T11:22:57;27.20;99.90
5689;DHT22;2869;50.432;8.680;2023-08-17T11:25:25;27.20;99.90
5689;DHT22;2869;50.432;8.680;2023-08-17T11:27:52;27.40;99.90
5689;DHT22;2869;50.432;8.680;2023-08-17T11:30:20;27.70;99.90
5689;DHT22;2869;50.432;8.680;2023-08-17T11:32:48;27.70;99.90
5689;DHT22;2869;50.432;8.680;2023-08-17T11:35:14;27.60;99.90
5689;DHT22;2869;50.432;8.680;2023-08-17T11:37:41;27.40;99.90
5689;DHT22;2869;50.432;8.680;2023-08-17T11:40:10;27.50;99.90
5689;DHT22;2869;50.432;8.680;2023-08-17T11:42:37;27.60;99.90
5689;DHT22;2869;50.432;8.680;2023-08-17T11:45:05;28.00;99.90
5689;DHT22;2869;50.432;8.680;2023-08-17T11:47:33;28.10;99.90
5689;DHT22;2869;50.432;8.680;2023-08-17T11:50:00;28.40;99.90
5689;DHT22;2869;50.432;8.680;2023-08-17T11:52:28;28.70;99.90
5689;DHT22;2869;50.432;8.680;2023-08-17T11:54:57;29.10;99.90
5689;DHT22;2869;50.432;8.680;2023-08-17T11:57:24;29.30;99.90
5689;DHT22;2869;50.432;8.680;2023-08-17T11:59:53;29.50;99.90
5689;DHT22;2869;50.432;8.680;2023-08-17T12:02:21;29.40;99.90
5689;DHT22;2869;50.432;8.680;2023-08-17T12:04:49;29.40;99.90
5689;DHT22;2869;50.432;8.680;2023-08-17T12:07:16;29.40;99.90
5689;DHT22;2869;50.432;8.680;2023-08-17T12:09:43;29.50;99.90
5689;DHT22;2869;50.432;8.680;2023-08-17T12:12:10;29.40;99.90
5689;DHT22;2869;50.432;8.680;2023-08-17T12:14:37;29.40;99.90
5689;DHT22;2869;50.432;8.680;2023-08-17T12:17:07;29.40;99.90
5689;DHT22;2869;50.432;8.680;2023-08-17T12:19:33;29.50;99.90
5689;DHT22;2869;50.432;8.680;2023-08-17T12:22:02;29.40;99.90
5689;DHT22;2869;50.432;8.680;2023-08-17T12:24:30;29.40;99.90
5689;DHT22;2869;50.432;8.680;2023-08-17T12:26:57;29.40;99.90
5689;DHT22;2869;50.432;8.680;2023-08-17T12:29:24;29.70;99.90
5689;DHT22;2869;50.432;8.680;2023-08-17T12:31:52;29.60;99.90
5689;DHT22;2869;50.432;8.680;2023-08-17T12:34:18;29.70;99.90
5689;DHT22;2869;50.432;8.680;2023-08-17T12:36:45;29.70;99.90
5689;DHT22;2869;50.432;8.680;2023-08-17T12:39:13;29.60;99.90
5689;DHT22;2869;50.432;8.680;2023-08-17T12:41:40;29.80;99.90
5689;DHT22;2869;50.432;8.680;2023-08-17T12:44:08;30.00;99.90
5689;DHT22;2869;50.432;8.680;2023-08-17T12:46:37;30.20;99.90
5689;DHT22;2869;50.432;8.680;2023-08-17T12:49:04;30.30;99.90
5689;DHT22;2869;50.432;8.680;2023-08-17T12:51:31;30.60;99.90
5689;DHT22;2869;50.432;8.680;2023-08-17T12:53:57;30.70;99.90
5689;DHT22;2869;50.432;8.680;2023-08-17T12:56:25;31.00;99.90
5689;DHT22;2869;50.432;8.680;2023-08-17T12:58:52;30.80;99.90
5689;DHT22;2869;50.432;8.680;2023-08-17T13:01:19;30.60;99.90
5689;DHT22;2869;50.432;8.680;2023-08-17T13:03:45;30.60;99.90
5689;DHT22;2869;50.432;8.680;2023-08-17T13:06:12;30.70;99.90
5689;DHT22;2869;50.432;8.680;2023-08-17T13:08:38;30.90;99.90
5689;DHT22;2869;50.432;8.680;2023-08-17T13:11:05;31.10;99.90
5689;DHT22;2869;50.432;8.680;2023-08-17T13:13:33;30.80;99.90
5689;DHT22;2869;50.432;8.680;2023-08-17T13:16:00;30.90;99.90
5689;DHT22;2869;50.432;8.680;2023-08-17T13:18:27;31.10;99.90
5689;DHT22;2869;50.432;8.680;2023-08-17T13:20:54;31.00;99.90
5689;DHT22;2869;50.432;8.680;2023-08-17T13:23:20;31.20;99.90
5689;DHT22;2869;50.432;8.680;2023-08-17T13:25:47;31.40;99.90
5689;DHT22;2869;50.432;8.680;2023-08-17T13:28:14;31.60;99.90
5689;DHT22;2869;50.432;8.680;2023-08-17T13:30:42;31.30;99.90
5689;DHT22;2869;50.432;8.680;2023-08-17T13:33:09;31.00;99.90
5689;DHT22;2869;50.432;8.680;2023-08-17T13:35:36;30.90;99.90
5689;DHT22;2869;50.432;8.680;2023-08-17T13:38:03;30.40;99.90
5689;DHT22;2869;50.432;8.680;2023-08-17T13:40:30;30.10;99.90
5689;DHT22;2869;50.432;8.680;2023-08-17T13:42:57;29.90;99.90
5689;DHT22;2869;50.432;8.680;2023-08-17T13:45:24;29.90;99.90
5689;DHT22;2869;50.432;8.680;2023-08-17T13:47:53;29.90;99.90
5689;DHT22;2869;50.432;8.680;2023-08-17T13:50:19;29.60;99.90
5689;DHT22;2869;50.432;8.680;2023-08-17T13:52:46;29.60;99.90
5689;DHT22;2869;50.432;8.680;2023-08-17T13:55:13;29.70;99.90
5689;DHT22;2869;50.432;8.680;2023-08-17T13:57:39;30.00;99.90
5689;DHT22;2869;50.432;8.680;2023-08-17T14:00:07;30.10;99.90
5689;DHT22;2869;50.432;8.680;2023-08-17T14:02:34;30.30;99.90
5689;DHT22;2869;50.432;8.680;2023-08-17T14:05:03;30.40;99.90
5689;DHT22;2869;50.432;8.680;2023-08-17T14:07:29;30.30;99.90
5689;DHT22;2869;50.432;8.680;2023-08-17T14:09:56;30.20;99.90
5689;DHT22;2869;50.432;8.680;2023-08-17T14:12:23;30.20;99.90
5689;DHT22;2869;50.432;8.680;2023-08-17T14:14:49;30.00;99.90
5689;DHT22;2869;50.432;8.680;2023-08-17T14:17:16;29.90;99.90
5689;DHT22;2869;50.432;8.680;2023-08-17T14:19:43;30.00;99.90
5689;DHT22;2869;50.432;8.680;2023-08-17T14:22:11;29.90;99.90
5689;DHT22;2869;50.432;8.680;2023-08-17T14:24:37;29.60;99.90
5689;DHT22;2869;50.432;8.680;2023-08-17T14:27:04;29.60;99.90
5689;DHT22;2869;50.432;8.680;2023-08-17T14:29:31;29.70;99.90
5689;DHT22;2869;50.432;8.680;2023-08-17T14:31:57;29.70;99.90
5689;DHT22;2869;50.432;8.680;2023-08-17T14:34:24;29.60;99.90
5689;DHT22;2869;50.432;8.680;2023-08-17T14:36:51;29.40;99.90
5689;DHT22;2869;50.432;8.680;2023-08-17T14:39:20;29.40;99.90
5689;DHT22;2869;50.432;8.680;2023-08-17T14:41:47;29.80;99.90
5689;DHT22;2869;50.432;8.680;2023-08-17T14:44:13;29.70;99.90
5689;DHT22;2869;50.432;8.680;2023-08-17T14:46:42;29.40;99.90
5689;DHT22;2869;50.432;8.680;2023-08-17T14:49:09;29.20;99.90
5689;DHT22;2869;50.432;8.680;2023-08-17T14:51:40;29.10;99.90
5689;DHT22;2869;50.432;8.680;2023-08-17T14:54:08;29.00;99.90
5689;DHT22;2869;50.432;8.680;2023-08-17T14:56:36;29.20;99.90
5689;DHT22;2869;50.432;8.680;2023-08-17T14:59:04;29.30;99.90
5689;DHT22;2869;50.432;8.680;2023-08-17T15:01:30;29.40;99.90
5689;DHT22;2869;50.432;8.680;2023-08-17T15:03:57;29.50;99.90
5689;DHT22;2869;50.432;8.680;2023-08-17T15:06:24;29.50;99.90
5689;DHT22;2869;50.432;8.680;2023-08-17T15:08:51;29.60;99.90
5689;DHT22;2869;50.432;8.680;2023-08-17T15:11:17;29.70;99.90
5689;DHT22;2869;50.432;8.680;2023-08-17T15:13:45;29.80;99.90
5689;DHT22;2869;50.432;8.680;2023-08-17T15:16:12;29.80;99.90
5689;DHT22;2869;50.432;8.680;2023-08-17T15:18:39;29.80;99.90
5689;DHT22;2869;50.432;8.680;2023-08-17T15:21:05;29.80;99.90
5689;DHT22;2869;50.432;8.680;2023-08-17T15:23:33;29.70;99.90
5689;DHT22;2869;50.432;8.680;2023-08-17T15:25:59;29.60;99.90
5689;DHT22;2869;50.432;8.680;2023-08-17T15:28:26;29.60;99.90
5689;DHT22;2869;50.432;8.680;2023-08-17T15:31:02;29.60;99.90
5689;DHT22;2869;50.432;8.680;2023-08-17T15:33:29;29.60;99.90
5689;DHT22;2869;50.432;8.680;2023-08-17T15:35:56;29.60;99.90
5689;DHT22;2869;50.432;8.680;2023-08-17T15:38:23;29.50;99.90
5689;DHT22;2869;50.432;8.680;2023-08-17T15:40:50;29.40;99.90
5689;DHT22;2869;50.432;8.680;2023-08-17T15:43:17;29.20;99.90
5689;DHT22;2869;50.432;8.680;2023-08-17T15:45:43;29.10;99.90
5689;DHT22;2869;50.432;8.680;2023-08-17T15:48:12;29.10;99.90
5689;DHT22;2869;50.432;8.680;2023-08-17T15:50:38;29.10;99.90
5689;DHT22;2869;50.432;8.680;2023-08-17T15:55:34;29.10;99.90
5689;DHT22;2869;50.432;8.680;2023-08-17T15:58:00;29.20;99.90
5689;DHT22;2869;50.432;8.680;2023-08-17T16:00:27;29.20;99.90
5689;DHT22;2869;50.432;8.680;2023-08-17T16:02:54;29.10;99.90
5689;DHT22;2869;50.432;8.680;2023-08-17T16:05:23;29.10;99.90
5689;DHT22;2869;50.432;8.680;2023-08-17T16:07:50;29.00;99.90
5689;DHT22;2869;50.432;8.680;2023-08-17T16:10:17;29.00;99.90
5689;DHT22;2869;50.432;8.680;2023-08-17T16:12:43;29.10;99.90
5689;DHT22;2869;50.432;8.680;2023-08-17T16:15:10;28.90;99.90
5689;DHT22;2869;50.432;8.680;2023-08-17T16:17:37;28.80;99.90
5689;DHT22;2869;50.432;8.680;2023-08-17T16:20:04;28.70;99.90
5689;DHT22;2869;50.432;8.680;2023-08-17T16:22:32;28.50;99.90
5689;DHT22;2869;50.432;8.680;2023-08-17T16:24:59;28.50;99.90
5689;DHT22;2869;50.432;8.680;2023-08-17T16:27:27;28.50;99.90
5689;DHT22;2869;50.432;8.680;2023-08-17T16:29:53;28.50;99.90
5689;DHT22;2869;50.432;8.680;2023-08-17T16:32:20;28.60;99.90
5689;DHT22;2869;50.432;8.680;2023-08-17T16:34:47;28.50;99.90
5689;DHT22;2869;50.432;8.680;2023-08-17T16:37:14;28.30;99.90
5689;DHT22;2869;50.432;8.680;2023-08-17T16:39:42;28.20;99.90
5689;DHT22;2869;50.432;8.680;2023-08-17T16:42:09;28.20;99.90
5689;DHT22;2869;50.432;8.680;2023-08-17T16:44:36;28.10;99.90
5689;DHT22;2869;50.432;8.680;2023-08-17T16:47:03;28.20;99.90
5689;DHT22;2869;50.432;8.680;2023-08-17T16:49:29;28.10;99.90
5689;DHT22;2869;50.432;8.680;2023-08-17T16:51:58;28.00;99.90
5689;DHT22;2869;50.432;8.680;2023-08-17T16:54:24;28.00;99.90
5689;DHT22;2869;50.432;8.680;2023-08-17T16:56:53;28.00;99.90
5689;DHT22;2869;50.432;8.680;2023-08-17T16:59:19;28.00;99.90
5689;DHT22;2869;50.432;8.680;2023-08-17T17:01:46;27.90;99.90
5689;DHT22;2869;50.432;8.680;2023-08-17T17:04:13;27.80;99.90
5689;DHT22;2869;50.432;8.680;2023-08-17T17:06:39;27.80;99.90
5689;DHT22;2869;50.432;8.680;2023-08-17T17:09:06;27.70;99.90
5689;DHT22;2869;50.432;8.680;2023-08-17T17:11:33;27.70;99.90
5689;DHT22;2869;50.432;8.680;2023-08-17T17:14:01;27.60;99.90
5689;DHT22;2869;50.432;8.680;2023-08-17T17:16:28;27.60;99.90
5689;DHT22;2869;50.432;8.680;2023-08-17T17:18:54;27.60;99.90
5689;DHT22;2869;50.432;8.680;2023-08-17T17:21:21;27.60;99.90
5689;DHT22;2869;50.432;8.680;2023-08-17T17:23:48;27.50;99.90
5689;DHT22;2869;50.432;8.680;2023-08-17T17:26:15;27.40;99.90
5689;DHT22;2869;50.432;8.680;2023-08-17T17:28:42;27.30;99.90